createdAt,value
2022-12-15T00:00:21.118Z,39.83
2022-12-15T00:03:06.992Z,39.10
2022-12-15T00:05:52.439Z,40.33
2022-12-15T00:08:38.355Z,39.90
2022-12-15T00:11:23.912Z,38.57
2022-12-15T00:14:11.023Z,38.77
2022-12-15T00:16:56.500Z,38.97
2022-12-15T00:19:42.031Z,38.27
2022-12-15T00:22:27.788Z,37.97
2022-12-15T00:25:13.078Z,39.77
2022-12-15T00:27:58.333Z,39.53
2022-12-15T00:30:45.202Z,39.07
2022-12-15T00:33:35.590Z,40.03
2022-12-15T00:36:21.101Z,39.67
2022-12-15T00:38:49.107Z,40.73
2022-12-15T00:41:19.534Z,41.47
2022-12-15T00:43:47.812Z,43.67
2022-12-15T00:46:34.611Z,42.17
2022-12-15T00:49:03.151Z,41.87
2022-12-15T00:51:49.001Z,42.20
2022-12-15T00:54:34.420Z,45.77
2022-12-15T00:57:19.760Z,45.50
2022-12-15T01:00:04.974Z,42.70
2022-12-15T01:02:52.007Z,40.93
2022-12-15T01:05:37.918Z,44.67
2022-12-15T01:08:23.159Z,43.00
2022-12-15T01:11:08.564Z,39.93
2022-12-15T01:13:54.157Z,42.17
2022-12-15T01:16:39.698Z,43.33
2022-12-15T01:19:28.461Z,40.90
2022-12-15T01:21:56.675Z,43.00
2022-12-15T01:24:25.163Z,42.60
2022-12-15T01:26:53.381Z,42.17
2022-12-15T01:29:21.552Z,42.83
2022-12-15T01:31:50.030Z,41.97
2022-12-15T01:34:22.669Z,42.80
2022-12-15T01:36:50.781Z,42.43
2022-12-15T01:39:18.839Z,42.30
2022-12-15T01:41:46.083Z,42.50
2022-12-15T01:44:19.390Z,40.83
2022-12-15T01:46:49.225Z,41.77
2022-12-15T01:49:23.077Z,42.17
2022-12-15T01:51:56.882Z,42.80
2022-12-15T01:54:28.988Z,42.97
2022-12-15T01:57:00.860Z,43.70
2022-12-15T01:59:35.441Z,44.10
2022-12-15T02:02:04.212Z,43.70
2022-12-15T02:04:35.376Z,47.73
2022-12-15T02:07:03.581Z,42.37
2022-12-15T02:09:32.093Z,43.30
2022-12-15T02:12:08.156Z,43.27
2022-12-15T02:14:54.031Z,43.67
2022-12-15T02:17:34.244Z,43.27
2022-12-15T02:20:40.521Z,43.63
2022-12-15T02:23:48.394Z,42.27
2022-12-15T02:26:51.548Z,42.50
2022-12-15T02:29:38.587Z,43.87
2022-12-15T02:32:11.149Z,41.73
2022-12-15T02:34:44.785Z,42.43
2022-12-15T02:37:18.576Z,43.13
2022-12-15T02:39:47.467Z,43.70
2022-12-15T02:42:15.886Z,42.23
2022-12-15T02:44:49.380Z,43.80
2022-12-15T02:47:33.851Z,43.97
2022-12-15T02:50:21.043Z,41.77
2022-12-15T02:53:00.165Z,42.13
2022-12-15T02:55:40.330Z,42.93
2022-12-15T02:58:12.386Z,43.33
2022-12-15T03:00:44.928Z,42.87
2022-12-15T03:03:20.199Z,42.10
2022-12-15T03:05:49.302Z,43.67
2022-12-15T03:08:17.506Z,43.53
2022-12-15T03:10:45.852Z,42.50
2022-12-15T03:13:14.516Z,42.40
2022-12-15T03:15:42.733Z,43.97
2022-12-15T03:18:11.262Z,41.03
2022-12-15T03:20:40.757Z,43.60
2022-12-15T03:23:09.223Z,44.00
2022-12-15T03:25:37.409Z,43.77
2022-12-15T03:28:05.708Z,43.93
2022-12-15T03:30:33.584Z,43.17
2022-12-15T03:33:05.021Z,44.23
2022-12-15T03:35:33.780Z,42.60
2022-12-15T03:38:03.311Z,43.93
2022-12-15T03:40:31.322Z,43.57
2022-12-15T03:42:59.426Z,41.73
2022-12-15T03:45:28.985Z,43.67
2022-12-15T03:47:58.611Z,42.53
2022-12-15T03:50:28.380Z,44.27
2022-12-15T03:52:58.383Z,44.03
2022-12-15T03:55:29.360Z,44.37
2022-12-15T03:57:59.281Z,43.40
2022-12-15T04:00:28.456Z,43.30
2022-12-15T04:02:56.963Z,42.90
2022-12-15T04:05:27.444Z,44.40
2022-12-15T04:07:55.839Z,42.27
2022-12-15T04:10:28.730Z,41.83
2022-12-15T04:13:04.288Z,43.47
2022-12-15T04:15:33.013Z,42.70
2022-12-15T04:18:03.049Z,41.67
2022-12-15T04:20:30.350Z,41.37
2022-12-15T04:22:58.444Z,42.63
2022-12-15T04:25:44.875Z,42.50
2022-12-15T04:28:32.978Z,43.23
2022-12-15T04:31:24.888Z,40.60
2022-12-15T04:34:13.645Z,39.50
2022-12-15T04:37:00.935Z,40.87
2022-12-15T04:39:46.558Z,41.73
2022-12-15T04:42:32.450Z,42.33
2022-12-15T04:45:21.358Z,42.80
2022-12-15T04:48:06.818Z,40.03
2022-12-15T04:50:52.311Z,41.30
2022-12-15T04:53:37.946Z,41.87
2022-12-15T04:56:27.966Z,41.43
2022-12-15T04:59:13.431Z,39.77
2022-12-15T05:02:03.115Z,41.90
2022-12-15T05:04:48.990Z,41.17
2022-12-15T05:07:35.000Z,41.70
2022-12-15T05:10:21.379Z,41.80
2022-12-15T05:13:06.635Z,40.33
2022-12-15T05:15:52.583Z,41.73
2022-12-15T05:18:39.493Z,41.70
2022-12-15T05:21:25.464Z,41.77
2022-12-15T05:24:11.225Z,41.70
2022-12-15T05:26:56.997Z,40.70
2022-12-15T05:29:42.942Z,41.77
2022-12-15T05:32:11.798Z,41.90
2022-12-15T05:34:41.464Z,42.33
2022-12-15T05:37:09.531Z,40.40
2022-12-15T05:39:37.724Z,39.87
2022-12-15T05:42:05.998Z,40.63
2022-12-15T05:44:34.116Z,40.00
2022-12-15T05:47:02.299Z,40.77
2022-12-15T05:49:30.779Z,41.03
2022-12-15T05:52:00.602Z,42.27
2022-12-15T05:54:29.009Z,39.87
2022-12-15T05:56:56.984Z,40.60
2022-12-15T05:59:25.424Z,41.07
2022-12-15T06:01:53.691Z,40.17
2022-12-15T06:04:22.020Z,41.63
2022-12-15T06:06:50.241Z,40.73
2022-12-15T06:09:19.788Z,40.53
2022-12-15T06:11:47.757Z,39.73
2022-12-15T06:14:15.995Z,38.97
2022-12-15T06:16:50.750Z,40.73
2022-12-15T06:19:19.295Z,41.00
2022-12-15T06:21:47.278Z,40.97
2022-12-15T06:24:15.336Z,40.37
2022-12-15T06:26:44.924Z,40.40
2022-12-15T06:29:14.212Z,41.67
2022-12-15T06:31:43.096Z,40.70
2022-12-15T06:34:14.578Z,39.83
2022-12-15T06:36:44.159Z,41.60
2022-12-15T06:39:13.873Z,40.13
2022-12-15T06:41:44.459Z,40.47
2022-12-15T06:44:14.980Z,39.83
2022-12-15T06:46:43.486Z,39.47
2022-12-15T06:49:11.880Z,39.03
2022-12-15T06:51:41.446Z,41.10
2022-12-15T06:54:11.337Z,40.00
2022-12-15T06:56:40.248Z,37.47
2022-12-15T06:59:11.648Z,41.83
2022-12-15T07:01:39.817Z,41.07
2022-12-15T07:04:08.172Z,39.27
2022-12-15T07:06:37.528Z,39.70
2022-12-15T07:09:10.558Z,38.80
2022-12-15T07:11:38.696Z,37.80
2022-12-15T07:14:06.807Z,38.53
2022-12-15T07:16:36.484Z,37.07
2022-12-15T07:19:04.600Z,38.70
2022-12-15T07:21:33.703Z,39.23
2022-12-15T07:24:02.758Z,38.07
2022-12-15T07:26:31.714Z,38.30
2022-12-15T07:28:59.677Z,38.97
2022-12-15T07:31:27.768Z,39.07
2022-12-15T07:33:58.710Z,38.40
2022-12-15T07:36:27.535Z,39.53
2022-12-15T07:39:00.784Z,38.83
2022-12-15T07:41:30.167Z,38.97
2022-12-15T07:43:59.084Z,38.17
2022-12-15T07:46:29.232Z,39.57
2022-12-15T07:48:58.885Z,37.57
2022-12-15T07:51:27.631Z,38.87
2022-12-15T07:53:55.554Z,38.77
2022-12-15T07:56:23.821Z,39.60
2022-12-15T07:58:52.517Z,37.40
2022-12-15T08:01:20.959Z,39.20
2022-12-15T08:03:50.003Z,38.53
2022-12-15T08:06:20.267Z,39.73
2022-12-15T08:08:50.659Z,39.83
2022-12-15T08:11:21.102Z,39.03
2022-12-15T08:14:02.403Z,38.87
2022-12-15T08:16:31.728Z,39.50
2022-12-15T08:19:00.675Z,40.03
2022-12-15T08:21:31.572Z,36.53
2022-12-15T08:24:00.900Z,37.33
2022-12-15T08:26:31.222Z,37.43
2022-12-15T08:29:31.901Z,39.63
2022-12-15T08:31:52.189Z,36.73
2022-12-15T08:34:20.626Z,39.00
2022-12-15T08:36:50.087Z,37.97
2022-12-15T08:39:18.535Z,39.10
2022-12-15T08:41:46.477Z,39.20
2022-12-15T08:44:16.780Z,39.20
2022-12-15T08:46:44.882Z,38.67
2022-12-15T08:49:17.908Z,37.80
2022-12-15T08:51:50.666Z,38.20
2022-12-15T08:54:19.417Z,38.13
2022-12-15T08:56:47.466Z,33.60
2022-12-15T08:59:16.370Z,34.13
2022-12-15T09:01:44.599Z,33.93
2022-12-15T09:04:12.833Z,34.77
2022-12-15T09:06:40.861Z,34.87
2022-12-15T09:09:13.540Z,35.20
2022-12-15T09:11:41.783Z,34.73
2022-12-15T09:14:10.049Z,35.03
2022-12-15T09:16:38.472Z,34.97
2022-12-15T09:19:08.267Z,34.10
2022-12-15T09:21:36.949Z,34.03
2022-12-15T09:24:06.589Z,34.17
2022-12-15T09:26:36.425Z,32.73
2022-12-15T09:29:07.121Z,32.63
2022-12-15T09:31:39.221Z,33.03
2022-12-15T09:34:07.979Z,32.73
2022-12-15T09:36:36.321Z,33.37
2022-12-15T09:39:04.820Z,31.33
2022-12-15T09:41:37.970Z,31.43
2022-12-15T09:44:11.560Z,32.40
2022-12-15T09:46:51.231Z,31.57
2022-12-15T09:49:35.808Z,32.10
2022-12-15T09:52:11.213Z,32.83
2022-12-15T09:54:41.894Z,31.67
2022-12-15T09:57:17.824Z,32.10
2022-12-15T10:00:06.203Z,32.73
2022-12-15T10:03:15.987Z,32.07
2022-12-15T10:06:16.177Z,31.63
2022-12-15T10:08:55.629Z,31.23
2022-12-15T10:11:36.562Z,31.27
2022-12-15T10:14:14.735Z,30.80
2022-12-15T10:16:54.947Z,30.23
2022-12-15T10:19:30.921Z,30.93
2022-12-15T10:21:59.626Z,29.60
2022-12-15T10:25:07.828Z,29.80
2022-12-15T10:27:36.142Z,30.37
2022-12-15T10:30:09.926Z,31.13
2022-12-15T10:32:50.349Z,31.30
2022-12-15T10:35:23.256Z,30.87
2022-12-15T10:37:51.438Z,30.43
2022-12-15T10:40:41.651Z,30.53
2022-12-15T10:43:15.657Z,31.27
2022-12-15T10:45:45.357Z,32.20
2022-12-15T10:48:21.183Z,31.37
2022-12-15T10:50:50.212Z,31.23
2022-12-15T10:53:38.720Z,31.13
2022-12-15T10:56:08.812Z,29.33
2022-12-15T10:58:50.266Z,31.23
2022-12-15T11:01:24.081Z,31.23
2022-12-15T11:03:54.351Z,30.77
2022-12-15T11:06:29.168Z,30.70
2022-12-15T11:08:59.017Z,30.70
2022-12-15T11:11:48.457Z,30.20
2022-12-15T11:14:24.060Z,30.97
2022-12-15T11:16:56.393Z,30.57
2022-12-15T11:19:37.472Z,32.40
2022-12-15T11:22:14.082Z,28.77
2022-12-15T11:24:48.840Z,29.13
2022-12-15T11:27:24.275Z,29.87
2022-12-15T11:30:01.178Z,28.63
2022-12-15T11:32:35.392Z,27.00
2022-12-15T11:35:04.149Z,27.13
2022-12-15T11:37:40.020Z,27.47
2022-12-15T11:40:31.666Z,26.83
2022-12-15T11:43:24.989Z,25.87
2022-12-15T11:46:05.685Z,26.50
2022-12-15T11:48:43.052Z,27.37
2022-12-15T11:51:18.623Z,27.53
2022-12-15T11:54:16.698Z,27.23
2022-12-15T11:56:49.178Z,27.10
2022-12-15T11:59:38.863Z,28.93
2022-12-15T12:02:27.246Z,28.73
2022-12-15T12:05:13.808Z,27.43
2022-12-15T12:07:46.483Z,28.30
2022-12-15T12:10:31.013Z,28.33
2022-12-15T12:13:12.005Z,27.90
2022-12-15T12:15:53.662Z,28.23
2022-12-15T12:18:27.066Z,26.07
2022-12-15T12:21:04.643Z,27.20
2022-12-15T12:23:39.781Z,26.27
2022-12-15T12:26:17.559Z,26.80
2022-12-15T12:28:50.301Z,25.23
2022-12-15T12:31:27.250Z,26.03
2022-12-15T12:33:59.511Z,25.10
2022-12-15T12:36:29.047Z,24.93
2022-12-15T12:38:59.113Z,26.70
2022-12-15T12:41:35.642Z,27.03
2022-12-15T12:44:13.229Z,26.77
2022-12-15T12:46:45.940Z,26.70
2022-12-15T12:49:26.858Z,27.23
2022-12-15T12:51:58.719Z,26.87
2022-12-15T12:54:48.637Z,26.27
2022-12-15T12:57:39.657Z,27.67
2022-12-15T13:00:22.043Z,27.60
2022-12-15T13:03:19.617Z,26.93
2022-12-15T13:05:50.407Z,26.43
2022-12-15T13:08:51.178Z,25.33
2022-12-15T13:12:03.145Z,26.43
2022-12-15T13:14:54.666Z,26.03
2022-12-15T13:17:31.251Z,26.73
2022-12-15T13:20:23.776Z,25.83
2022-12-15T13:22:52.569Z,26.97
2022-12-15T13:25:50.342Z,24.37
2022-12-15T13:28:40.675Z,26.03
2022-12-15T13:31:28.775Z,25.97
2022-12-15T13:34:19.171Z,23.63
2022-12-15T13:36:59.140Z,24.87
2022-12-15T13:39:57.758Z,24.57
2022-12-15T13:42:52.692Z,24.37
2022-12-15T13:45:36.493Z,24.30
2022-12-15T13:48:18.124Z,22.53
2022-12-15T13:50:52.334Z,24.10
2022-12-15T13:53:25.353Z,23.23
2022-12-15T13:56:05.279Z,22.77
2022-12-15T13:58:40.583Z,23.57
2022-12-15T14:04:16.456Z,23.90
2022-12-15T14:06:50.708Z,23.33
2022-12-15T14:09:23.832Z,23.47
2022-12-15T14:11:54.593Z,24.17
2022-12-15T14:14:26.474Z,24.77
2022-12-15T14:16:58.654Z,24.80
2022-12-15T14:19:40.793Z,24.20
2022-12-15T14:22:28.229Z,24.97
2022-12-15T14:25:03.740Z,24.40
2022-12-15T14:27:34.612Z,23.70
2022-12-15T14:30:28.350Z,25.23
2022-12-15T14:33:03.032Z,23.97
2022-12-15T14:35:37.288Z,24.67
2022-12-15T14:38:09.499Z,24.37
2022-12-15T14:40:40.126Z,25.13
2022-12-15T14:43:16.525Z,24.20
2022-12-15T14:45:45.490Z,24.37
2022-12-15T14:48:42.577Z,24.40
2022-12-15T14:51:15.141Z,24.53
2022-12-15T14:53:49.264Z,23.30
2022-12-15T14:56:31.193Z,24.53
2022-12-15T14:59:04.372Z,23.43
2022-12-15T15:01:37.493Z,23.90
2022-12-15T15:03:14.142Z,22.33
2022-12-15T15:04:08.759Z,25.67
2022-12-15T15:06:41.231Z,23.07
2022-12-15T15:09:25.769Z,23.40
2022-12-15T15:12:03.811Z,22.93
2022-12-15T15:14:34.424Z,23.40
2022-12-15T15:17:08.789Z,23.03
2022-12-15T15:19:40.034Z,22.70
2022-12-15T15:22:26.995Z,21.37
2022-12-15T15:24:56.836Z,21.07
2022-12-15T15:27:38.029Z,21.50
2022-12-15T15:30:23.464Z,22.87
2022-12-15T15:32:57.513Z,21.73
2022-12-15T15:35:31.355Z,21.43
2022-12-15T15:38:06.421Z,22.83
2022-12-15T15:40:38.406Z,21.80
2022-12-15T15:43:11.815Z,20.93
2022-12-15T15:45:41.704Z,21.20
2022-12-15T15:48:14.345Z,19.83
2022-12-15T15:50:42.378Z,19.67
2022-12-15T15:53:18.505Z,20.93
2022-12-15T15:55:46.874Z,22.07
2022-12-15T15:58:15.796Z,22.17
2022-12-15T16:00:43.904Z,23.47
2022-12-15T16:03:12.440Z,22.43
2022-12-15T16:05:41.833Z,22.43
2022-12-15T16:08:16.255Z,24.40
2022-12-15T16:10:47.637Z,23.03
2022-12-15T16:13:25.570Z,24.67
2022-12-15T16:15:54.139Z,27.00
2022-12-15T16:18:22.531Z,28.17
2022-12-15T16:20:52.881Z,29.50
2022-12-15T16:23:26.567Z,26.47
2022-12-15T16:25:56.813Z,27.30
2022-12-15T16:28:26.709Z,27.73
2022-12-15T16:30:54.842Z,27.03
2022-12-15T16:33:23.102Z,26.33
2022-12-15T16:35:51.872Z,26.53
2022-12-15T16:38:26.143Z,25.33
2022-12-15T16:40:55.421Z,25.00
2022-12-15T16:43:28.971Z,26.37
2022-12-15T16:46:01.795Z,28.13
2022-12-15T16:48:30.283Z,26.37
2022-12-15T16:51:00.168Z,25.40
2022-12-15T16:53:34.106Z,24.67
2022-12-15T16:56:06.087Z,26.53
2022-12-15T16:58:36.440Z,25.27
2022-12-15T17:01:05.350Z,26.27
2022-12-15T17:03:33.870Z,30.90
2022-12-15T17:06:05.237Z,33.47
2022-12-15T17:08:40.056Z,33.60
2022-12-15T17:11:13.059Z,33.23
2022-12-15T17:13:45.651Z,37.00
2022-12-15T17:16:21.501Z,35.83
2022-12-15T17:18:51.663Z,38.13
2022-12-15T17:21:23.269Z,37.07
2022-12-15T17:23:55.497Z,39.23
2022-12-15T17:26:29.505Z,36.87
2022-12-15T17:29:01.315Z,37.07
2022-12-15T17:31:35.136Z,39.10
2022-12-15T17:34:20.944Z,40.57
2022-12-15T17:36:49.407Z,40.40
2022-12-15T17:39:20.651Z,44.40
2022-12-15T17:42:05.952Z,41.70
2022-12-15T17:44:38.211Z,42.27
2022-12-15T17:47:09.413Z,41.70
2022-12-15T17:49:38.923Z,32.47
2022-12-15T17:52:20.350Z,37.40
2022-12-15T17:54:50.253Z,37.77
2022-12-15T17:57:18.839Z,37.60
2022-12-15T17:59:47.184Z,36.80
2022-12-15T18:02:15.903Z,36.30
2022-12-15T18:04:47.294Z,35.17
2022-12-15T18:07:18.775Z,36.30
2022-12-15T18:09:47.708Z,34.63
2022-12-15T18:12:25.712Z,34.57
2022-12-15T18:14:57.395Z,35.03
2022-12-15T18:17:25.796Z,34.73
2022-12-15T18:19:54.015Z,34.47
2022-12-15T18:22:23.690Z,33.20
2022-12-15T18:24:53.725Z,34.67
2022-12-15T18:27:25.638Z,34.07
2022-12-15T18:29:54.153Z,33.80
2022-12-15T18:32:23.585Z,33.63
2022-12-15T18:34:52.452Z,32.37
2022-12-15T18:37:22.961Z,33.17
2022-12-15T18:39:51.652Z,32.30
2022-12-15T18:42:23.318Z,33.27
2022-12-15T18:44:53.680Z,33.47
2022-12-15T18:47:24.866Z,33.33
2022-12-15T18:49:53.328Z,33.60
2022-12-15T18:52:23.917Z,35.13
2022-12-15T18:54:56.007Z,38.03
2022-12-15T18:57:29.822Z,39.47
2022-12-15T19:00:01.775Z,37.60
2022-12-15T19:02:30.264Z,40.07
2022-12-15T19:05:00.511Z,47.70
2022-12-15T19:07:29.044Z,46.60
2022-12-15T19:09:57.482Z,42.93
2022-12-15T19:12:30.705Z,40.03
2022-12-15T19:15:01.072Z,39.03
2022-12-15T19:17:47.045Z,35.97
2022-12-15T19:20:35.711Z,34.80
2022-12-15T19:23:04.356Z,34.03
2022-12-15T19:25:33.772Z,35.33
2022-12-15T19:28:02.773Z,32.37
2022-12-15T19:30:40.179Z,33.07
2022-12-15T19:33:10.248Z,33.33
2022-12-15T19:35:51.187Z,32.50
2022-12-15T19:38:26.025Z,34.03
2022-12-15T19:40:56.152Z,32.97
2022-12-15T19:43:25.485Z,33.53
2022-12-15T19:45:55.552Z,33.83
2022-12-15T19:48:24.487Z,33.70
2022-12-15T19:50:54.605Z,34.13
2022-12-15T19:53:26.532Z,32.83
2022-12-15T19:55:56.754Z,31.90
2022-12-15T19:58:28.885Z,30.30
2022-12-15T20:01:01.185Z,32.03
2022-12-15T20:03:31.316Z,30.30
2022-12-15T20:06:02.215Z,32.63
2022-12-15T20:08:34.638Z,33.13
2022-12-15T20:11:03.548Z,34.77
2022-12-15T20:13:31.987Z,35.53
2022-12-15T20:16:01.678Z,34.40
2022-12-15T20:18:29.951Z,34.90
2022-12-15T20:20:59.277Z,35.63
2022-12-15T20:23:29.602Z,34.87
2022-12-15T20:25:58.327Z,37.87
2022-12-15T20:28:28.654Z,39.30
2022-12-15T20:30:58.258Z,39.80
2022-12-15T20:33:28.521Z,39.30
2022-12-15T20:35:57.322Z,39.50
2022-12-15T20:38:30.359Z,36.63
2022-12-15T20:40:59.840Z,37.90
2022-12-15T20:43:31.241Z,37.10
2022-12-15T20:46:04.424Z,38.27
2022-12-15T20:48:38.350Z,37.80
2022-12-15T20:51:11.569Z,37.27
2022-12-15T20:53:40.219Z,38.23
2022-12-15T20:56:08.988Z,37.03
2022-12-15T20:58:39.995Z,36.40
2022-12-15T21:01:18.136Z,37.63
2022-12-15T21:03:48.153Z,37.03
2022-12-15T21:06:17.968Z,36.97
2022-12-15T21:08:46.159Z,36.07
2022-12-15T21:11:18.345Z,36.40
2022-12-15T21:13:48.253Z,34.90
2022-12-15T21:16:19.790Z,36.10
2022-12-15T21:21:39.809Z,34.73
2022-12-15T21:24:16.781Z,34.90
2022-12-15T21:26:45.523Z,34.33
2022-12-15T21:29:16.712Z,34.67
2022-12-15T21:31:45.383Z,34.90
2022-12-15T21:34:15.362Z,35.37
2022-12-15T21:36:47.304Z,35.30
2022-12-15T21:39:23.568Z,36.10
2022-12-15T21:41:57.256Z,35.13
2022-12-15T21:44:28.443Z,34.57
2022-12-15T21:46:56.832Z,35.13
2022-12-15T21:49:25.709Z,35.23
2022-12-15T21:51:56.803Z,35.50
2022-12-15T21:54:30.880Z,35.60
2022-12-15T21:57:00.731Z,37.60
2022-12-15T21:59:32.368Z,37.40
2022-12-15T22:02:01.893Z,35.60
2022-12-15T22:04:34.896Z,33.90
2022-12-15T22:07:03.194Z,32.00
2022-12-15T22:09:31.327Z,33.47
2022-12-15T22:11:59.541Z,32.77
2022-12-15T22:14:29.379Z,33.40
2022-12-15T22:16:58.572Z,33.30
2022-12-15T22:19:27.152Z,33.37
2022-12-15T22:21:58.959Z,32.50
2022-12-15T22:24:30.019Z,32.50
2022-12-15T22:27:04.646Z,31.50
2022-12-15T22:29:32.893Z,32.70
2022-12-15T22:32:01.078Z,33.47
2022-12-15T22:34:29.133Z,32.67
2022-12-15T22:36:58.720Z,30.70
2022-12-15T22:39:26.640Z,28.87
2022-12-15T22:41:56.217Z,27.73
2022-12-15T22:44:26.905Z,27.40
2022-12-15T22:46:57.906Z,27.70
2022-12-15T22:49:34.645Z,26.40
2022-12-15T22:52:05.050Z,27.63
2022-12-15T22:54:33.120Z,27.70
2022-12-15T22:57:04.163Z,26.37
2022-12-15T22:59:39.897Z,27.03
2022-12-15T23:02:09.226Z,27.03
2022-12-15T23:04:37.480Z,29.57
2022-12-15T23:07:10.084Z,32.07
2022-12-15T23:09:41.202Z,28.33
2022-12-15T23:12:08.200Z,26.13
2022-12-15T23:14:53.907Z,27.63
2022-12-15T23:17:22.896Z,28.57
2022-12-15T23:19:53.045Z,28.47
2022-12-15T23:22:22.919Z,30.17
2022-12-15T23:24:51.270Z,26.77
2022-12-15T23:27:19.840Z,26.70
2022-12-15T23:29:50.807Z,26.33
2022-12-15T23:32:19.848Z,25.83
2022-12-15T23:34:48.021Z,26.37
2022-12-15T23:37:16.333Z,25.83
2022-12-15T23:39:46.364Z,25.90
2022-12-15T23:42:14.312Z,25.60
2022-12-15T23:44:43.024Z,25.57
2022-12-15T23:47:11.269Z,26.20
2022-12-15T23:49:41.390Z,25.60
2022-12-15T23:52:09.853Z,25.37
2022-12-15T23:54:37.802Z,25.07
2022-12-15T23:57:07.373Z,25.03
2022-12-15T23:59:36.146Z,24.73
